sensor_id;sensor_type;location;lat;lon;timestamp;pressure;altitude;pressure_sealevel;temperature;humidity
76257;BME280;65074;50.436;8.672;2022-12-07T00:01:38;99524.78;;;2.77;100.00
76257;BME280;65074;50.436;8.672;2022-12-07T00:04:05;99527.03;;;2.80;100.00
76257;BME280;65074;50.436;8.672;2022-12-07T00:06:32;99527.50;;;2.84;100.00
76257;BME280;65074;50.436;8.672;2022-12-07T00:08:58;99520.53;;;2.89;100.00
76257;BME280;65074;50.436;8.672;2022-12-07T00:11:24;99521.44;;;3.03;100.00
76257;BME280;65074;50.436;8.672;2022-12-07T00:14:01;99516.50;;;2.93;100.00
76257;BME280;65074;50.436;8.672;2022-12-07T00:16:29;99520.53;;;2.89;100.00
76257;BME280;65074;50.436;8.672;2022-12-07T00:18:55;99515.94;;;3.04;100.00
76257;BME280;65074;50.436;8.672;2022-12-07T00:21:23;99506.56;;;3.08;100.00
76257;BME280;65074;50.436;8.672;2022-12-07T00:23:50;99503.69;;;3.10;100.00
76257;BME280;65074;50.436;8.672;2022-12-07T00:26:18;99505.28;;;3.04;100.00
76257;BME280;65074;50.436;8.672;2022-12-07T00:28:52;99505.28;;;3.04;100.00
76257;BME280;65074;50.436;8.672;2022-12-07T00:31:19;99501.66;;;3.12;100.00
76257;BME280;65074;50.436;8.672;2022-12-07T00:33:45;99506.13;;;3.05;100.00
76257;BME280;65074;50.436;8.672;2022-12-07T00:36:17;99497.53;;;3.03;100.00
76257;BME280;65074;50.436;8.672;2022-12-07T00:38:42;99505.91;;;3.00;100.00
76257;BME280;65074;50.436;8.672;2022-12-07T00:41:13;99498.13;;;2.98;100.00
76257;BME280;65074;50.436;8.672;2022-12-07T00:43:40;99492.00;;;3.04;100.00
76257;BME280;65074;50.436;8.672;2022-12-07T00:46:06;99486.47;;;2.99;100.00
76257;BME280;65074;50.436;8.672;2022-12-07T00:48:32;99490.94;;;2.99;100.00
76257;BME280;65074;50.436;8.672;2022-12-07T00:50:58;99486.44;;;2.86;100.00
76257;BME280;65074;50.436;8.672;2022-12-07T00:53:24;99481.91;;;2.87;100.00
76257;BME280;65074;50.436;8.672;2022-12-07T00:55:49;99489.88;;;2.87;100.00
76257;BME280;65074;50.436;8.672;2022-12-07T00:58:15;99486.22;;;2.88;100.00
76257;BME280;65074;50.436;8.672;2022-12-07T01:00:42;99491.91;;;2.85;100.00
76257;BME280;65074;50.436;8.672;2022-12-07T01:03:10;99483.72;;;2.80;100.00
76257;BME280;65074;50.436;8.672;2022-12-07T01:05:36;99481.25;;;2.78;100.00
76257;BME280;65074;50.436;8.672;2022-12-07T01:08:02;99480.66;;;2.76;100.00
76257;BME280;65074;50.436;8.672;2022-12-07T01:10:28;99484.34;;;2.82;100.00
76257;BME280;65074;50.436;8.672;2022-12-07T01:12:56;99479.63;;;2.77;100.00
76257;BME280;65074;50.436;8.672;2022-12-07T01:15:22;99483.72;;;2.80;100.00
76257;BME280;65074;50.436;8.672;2022-12-07T01:17:47;99481.69;;;2.82;100.00
76257;BME280;65074;50.436;8.672;2022-12-07T01:20:13;99472.53;;;2.91;100.00
76257;BME280;65074;50.436;8.672;2022-12-07T01:22:40;99480.31;;;2.99;100.00
76257;BME280;65074;50.436;8.672;2022-12-07T01:25:07;99485.91;;;3.10;100.00
76257;BME280;65074;50.436;8.672;2022-12-07T01:27:33;99472.19;;;3.07;100.00
76257;BME280;65074;50.436;8.672;2022-12-07T01:29:59;99470.16;;;3.09;100.00
76257;BME280;65074;50.436;8.672;2022-12-07T01:32:25;99468.72;;;3.06;100.00
76257;BME280;65074;50.436;8.672;2022-12-07T01:34:51;99464.19;;;3.00;100.00
76257;BME280;65074;50.436;8.672;2022-12-07T01:37:16;99463.97;;;2.95;100.00
76257;BME280;65074;50.436;8.672;2022-12-07T01:39:41;99458.22;;;2.92;100.00
76257;BME280;65074;50.436;8.672;2022-12-07T01:42:11;99453.13;;;2.90;100.00
76257;BME280;65074;50.436;8.672;2022-12-07T01:47:41;99461.06;;;2.84;100.00
76257;BME280;65074;50.436;8.672;2022-12-07T01:50:06;99466.41;;;2.90;100.00
76257;BME280;65074;50.436;8.672;2022-12-07T01:52:33;99456.31;;;2.79;100.00
76257;BME280;65074;50.436;8.672;2022-12-07T01:55:03;99457.75;;;2.75;100.00
76257;BME280;65074;50.436;8.672;2022-12-07T01:57:30;99460.84;;;2.79;100.00
76257;BME280;65074;50.436;8.672;2022-12-07T01:59:56;99447.94;;;2.76;100.00
76257;BME280;65074;50.436;8.672;2022-12-07T02:02:26;99446.91;;;2.77;100.00
76257;BME280;65074;50.436;8.672;2022-12-07T02:04:54;99455.72;;;2.77;100.00
76257;BME280;65074;50.436;8.672;2022-12-07T02:07:22;99444.47;;;2.75;100.00
76257;BME280;65074;50.436;8.672;2022-12-07T02:09:48;99440.59;;;2.78;100.00
76257;BME280;65074;50.436;8.672;2022-12-07T02:12:13;99442.63;;;2.69;100.00
76257;BME280;65074;50.436;8.672;2022-12-07T02:14:38;99437.13;;;2.77;100.00
76257;BME280;65074;50.436;8.672;2022-12-07T02:17:25;99433.41;;;2.72;100.00
76257;BME280;65074;50.436;8.672;2022-12-07T02:28:08;99427.69;;;2.75;100.00
76257;BME280;65074;50.436;8.672;2022-12-07T02:30:40;99435.91;;;2.80;100.00
76257;BME280;65074;50.436;8.672;2022-12-07T02:33:14;99430.81;;;2.85;100.00
76257;BME280;65074;50.436;8.672;2022-12-07T02:35:48;99433.84;;;2.82;100.00
76257;BME280;65074;50.436;8.672;2022-12-07T02:38:20;99432.06;;;2.89;100.00
76257;BME280;65074;50.436;8.672;2022-12-07T02:41:18;99434.50;;;2.84;100.00
76257;BME280;65074;50.436;8.672;2022-12-07T02:43:59;99425.31;;;2.86;100.00
76257;BME280;65074;50.436;8.672;2022-12-07T02:46:33;99427.78;;;2.88;100.00
76257;BME280;65074;50.436;8.672;2022-12-07T02:49:02;99424.69;;;2.84;100.00
76257;BME280;65074;50.436;8.672;2022-12-07T02:51:31;99418.34;;;2.85;100.00
76257;BME280;65074;50.436;8.672;2022-12-07T02:53:57;99417.34;;;2.86;100.00
76257;BME280;65074;50.436;8.672;2022-12-07T02:59:28;99414.25;;;2.76;100.00
76257;BME280;65074;50.436;8.672;2022-12-07T03:07:51;99408.34;;;2.81;100.00
76257;BME280;65074;50.436;8.672;2022-12-07T03:13:10;99409.56;;;2.85;100.00
76257;BME280;65074;50.436;8.672;2022-12-07T03:15:54;99411.22;;;2.86;100.00
76257;BME280;65074;50.436;8.672;2022-12-07T03:18:22;99406.72;;;2.86;100.00
76257;BME280;65074;50.436;8.672;2022-12-07T03:20:50;99400.16;;;2.82;100.00
76257;BME280;65074;50.436;8.672;2022-12-07T03:23:18;99398.75;;;2.86;100.00
76257;BME280;65074;50.436;8.672;2022-12-07T03:25:49;99401.81;;;2.90;100.00
76257;BME280;65074;50.436;8.672;2022-12-07T03:28:19;99401.63;;;2.91;100.00
76257;BME280;65074;50.436;8.672;2022-12-07T03:30:58;99394.06;;;2.95;100.00
76257;BME280;65074;50.436;8.672;2022-12-07T03:33:29;99395.09;;;2.94;100.00
76257;BME280;65074;50.436;8.672;2022-12-07T03:36:05;99396.94;;;2.93;100.00
76257;BME280;65074;50.436;8.672;2022-12-07T03:41:31;99394.28;;;3.00;100.00
76257;BME280;65074;50.436;8.672;2022-12-07T03:43:59;99382.00;;;2.99;100.00
76257;BME280;65074;50.436;8.672;2022-12-07T03:46:44;99388.75;;;3.01;100.00
76257;BME280;65074;50.436;8.672;2022-12-07T03:49:26;99395.72;;;3.09;100.00
76257;BME280;65074;50.436;8.672;2022-12-07T03:52:03;99404.53;;;3.03;100.00
76257;BME280;65074;50.436;8.672;2022-12-07T03:54:34;99402.28;;;3.06;100.00
76257;BME280;65074;50.436;8.672;2022-12-07T03:57:03;99395.72;;;3.02;100.00
76257;BME280;65074;50.436;8.672;2022-12-07T03:59:30;99392.25;;;3.02;100.00
76257;BME280;65074;50.436;8.672;2022-12-07T04:02:01;99395.72;;;3.02;100.00
76257;BME280;65074;50.436;8.672;2022-12-07T04:04:27;99403.31;;;3.05;100.00
76257;BME280;65074;50.436;8.672;2022-12-07T04:06:52;99399.59;;;3.00;100.00
76257;BME280;65074;50.436;8.672;2022-12-07T04:09:18;99398.00;;;3.05;100.00
76257;BME280;65074;50.436;8.672;2022-12-07T04:11:43;99403.50;;;3.04;100.00
76257;BME280;65074;50.436;8.672;2022-12-07T04:14:09;99395.13;;;3.07;100.00
76257;BME280;65074;50.436;8.672;2022-12-07T04:16:44;99407.19;;;3.09;100.00
76257;BME280;65074;50.436;8.672;2022-12-07T04:19:10;99405.13;;;3.05;100.00
76257;BME280;65074;50.436;8.672;2022-12-07T04:21:35;99399.81;;;3.05;100.00
76257;BME280;65074;50.436;8.672;2022-12-07T04:24:01;99393.69;;;3.04;100.00
76257;BME280;65074;50.436;8.672;2022-12-07T04:26:26;99390.03;;;3.05;100.00
76257;BME280;65074;50.436;8.672;2022-12-07T04:28:51;99389.19;;;3.05;100.00
76257;BME280;65074;50.436;8.672;2022-12-07T04:31:17;99395.34;;;3.05;100.00
76257;BME280;65074;50.436;8.672;2022-12-07T04:33:42;99394.91;;;3.02;100.00
76257;BME280;65074;50.436;8.672;2022-12-07T04:36:07;99392.91;;;3.10;100.00
76257;BME280;65074;50.436;8.672;2022-12-07T04:38:33;99394.72;;;3.10;100.00
76257;BME280;65074;50.436;8.672;2022-12-07T04:40:58;99398.44;;;3.15;100.00
76257;BME280;65074;50.436;8.672;2022-12-07T04:43:29;99390.47;;;3.15;100.00
76257;BME280;65074;50.436;8.672;2022-12-07T04:45:54;99387.19;;;3.13;100.00
76257;BME280;65074;50.436;8.672;2022-12-07T04:48:19;99382.88;;;3.12;100.00
76257;BME280;65074;50.436;8.672;2022-12-07T04:50:48;99381.22;;;3.11;100.00
76257;BME280;65074;50.436;8.672;2022-12-07T04:53:13;99372.25;;;3.12;100.00
76257;BME280;65074;50.436;8.672;2022-12-07T04:55:39;99376.72;;;3.12;100.00
76257;BME280;65074;50.436;8.672;2022-12-07T04:58:04;99373.69;;;3.08;100.00
76257;BME280;65074;50.436;8.672;2022-12-07T05:00:29;99372.63;;;3.09;100.00
76257;BME280;65074;50.436;8.672;2022-12-07T05:02:55;99376.94;;;3.10;100.00
76257;BME280;65074;50.436;8.672;2022-12-07T05:05:20;99390.03;;;3.12;100.00
76257;BME280;65074;50.436;8.672;2022-12-07T05:07:45;99388.19;;;3.12;100.00
76257;BME280;65074;50.436;8.672;2022-12-07T05:10:11;99388.41;;;3.11;100.00
76257;BME280;65074;50.436;8.672;2022-12-07T05:12:36;99387.97;;;3.14;100.00
76257;BME280;65074;50.436;8.672;2022-12-07T05:15:12;99385.31;;;3.14;100.00
76257;BME280;65074;50.436;8.672;2022-12-07T05:17:38;99390.47;;;3.15;100.00
76257;BME280;65074;50.436;8.672;2022-12-07T05:20:04;99389.63;;;3.15;100.00
76257;BME280;65074;50.436;8.672;2022-12-07T05:22:30;99384.94;;;3.17;100.00
76257;BME280;65074;50.436;8.672;2022-12-07T05:24:55;99390.84;;;3.12;100.00
76257;BME280;65074;50.436;8.672;2022-12-07T05:27:21;99388.41;;;3.17;100.00
76257;BME280;65074;50.436;8.672;2022-12-07T05:29:46;99382.09;;;3.18;100.00
76257;BME280;65074;50.436;8.672;2022-12-07T05:32:12;99383.91;;;3.18;100.00
76257;BME280;65074;50.436;8.672;2022-12-07T05:34:37;99394.13;;;3.14;100.00
76257;BME280;65074;50.436;8.672;2022-12-07T05:37:02;99392.28;;;3.21;100.00
76257;BME280;65074;50.436;8.672;2022-12-07T05:39:28;99385.97;;;3.22;100.00
76257;BME280;65074;50.436;8.672;2022-12-07T05:41:53;99387.41;;;3.18;100.00
76257;BME280;65074;50.436;8.672;2022-12-07T05:44:37;99383.72;;;3.19;100.00
76257;BME280;65074;50.436;8.672;2022-12-07T05:47:03;99386.97;;;3.21;100.00
76257;BME280;65074;50.436;8.672;2022-12-07T05:49:28;99388.63;;;3.22;100.00
76257;BME280;65074;50.436;8.672;2022-12-07T05:51:54;99383.50;;;3.21;100.00
76257;BME280;65074;50.436;8.672;2022-12-07T05:54:19;99394.13;;;3.21;100.00
76257;BME280;65074;50.436;8.672;2022-12-07T05:56:45;99392.72;;;3.18;100.00
76257;BME280;65074;50.436;8.672;2022-12-07T05:59:10;99389.03;;;3.19;100.00
76257;BME280;65074;50.436;8.672;2022-12-07T06:01:52;99383.91;;;3.18;100.00
76257;BME280;65074;50.436;8.672;2022-12-07T06:04:19;99396.78;;;3.14;100.00
76257;BME280;65074;50.436;8.672;2022-12-07T06:06:45;99394.72;;;3.16;100.00
76257;BME280;65074;50.436;8.672;2022-12-07T06:09:10;99390.25;;;3.17;100.00
76257;BME280;65074;50.436;8.672;2022-12-07T06:11:38;99392.28;;;3.21;100.00
76257;BME280;65074;50.436;8.672;2022-12-07T06:14:22;99400.09;;;3.23;100.00
76257;BME280;65074;50.436;8.672;2022-12-07T06:16:47;99409.50;;;3.25;100.00
76257;BME280;65074;50.436;8.672;2022-12-07T06:19:13;99403.97;;;3.27;100.00
76257;BME280;65074;50.436;8.672;2022-12-07T06:21:38;99408.28;;;3.28;100.00
76257;BME280;65074;50.436;8.672;2022-12-07T06:24:04;99412.59;;;3.36;100.00
76257;BME280;65074;50.436;8.672;2022-12-07T06:26:29;99410.53;;;3.38;100.00
76257;BME280;65074;50.436;8.672;2022-12-07T06:28:55;99409.09;;;3.42;100.00
76257;BME280;65074;50.436;8.672;2022-12-07T06:31:20;99401.94;;;3.42;100.00
76257;BME280;65074;50.436;8.672;2022-12-07T06:33:45;99400.13;;;3.43;100.00
76257;BME280;65074;50.436;8.672;2022-12-07T06:36:11;99400.72;;;3.45;100.00
76257;BME280;65074;50.436;8.672;2022-12-07T06:38:37;99400.72;;;3.45;100.00
76257;BME280;65074;50.436;8.672;2022-12-07T06:41:02;99407.47;;;3.47;100.00
76257;BME280;65074;50.436;8.672;2022-12-07T06:43:28;99401.13;;;3.48;100.00
76257;BME280;65074;50.436;8.672;2022-12-07T06:45:53;99402.78;;;3.49;100.00
76257;BME280;65074;50.436;8.672;2022-12-07T06:48:18;99409.75;;;3.50;100.00
76257;BME280;65074;50.436;8.672;2022-12-07T06:50:45;99398.88;;;3.52;100.00
76257;BME280;65074;50.436;8.672;2022-12-07T06:53:11;99411.38;;;3.51;100.00
76257;BME280;65074;50.436;8.672;2022-12-07T06:55:36;99406.88;;;3.52;100.00
76257;BME280;65074;50.436;8.672;2022-12-07T06:58:02;99412.00;;;3.60;100.00
76257;BME280;65074;50.436;8.672;2022-12-07T07:00:28;99408.31;;;3.61;100.00
76257;BME280;65074;50.436;8.672;2022-12-07T07:02:54;99405.63;;;3.61;100.00
76257;BME280;65074;50.436;8.672;2022-12-07T07:05:20;99417.09;;;3.61;100.00
76257;BME280;65074;50.436;8.672;2022-12-07T07:07:49;99414.03;;;3.58;100.00
76257;BME280;65074;50.436;8.672;2022-12-07T07:10:15;99407.47;;;3.54;100.00
76257;BME280;65074;50.436;8.672;2022-12-07T07:12:40;99400.94;;;3.50;100.00
76257;BME280;65074;50.436;8.672;2022-12-07T07:15:06;99415.66;;;3.39;100.00
76257;BME280;65074;50.436;8.672;2022-12-07T07:17:31;99409.31;;;3.40;100.00
76257;BME280;65074;50.436;8.672;2022-12-07T07:19:57;99422.59;;;3.40;100.00
76257;BME280;65074;50.436;8.672;2022-12-07T07:22:22;99410.50;;;3.31;100.00
76257;BME280;65074;50.436;8.672;2022-12-07T07:24:48;99414.38;;;3.28;100.00
76257;BME280;65074;50.436;8.672;2022-12-07T07:27:13;99418.47;;;3.31;100.00
76257;BME280;65074;50.436;8.672;2022-12-07T07:29:38;99414.38;;;3.22;100.00
76257;BME280;65074;50.436;8.672;2022-12-07T07:32:04;99416.22;;;3.21;100.00
76257;BME280;65074;50.436;8.672;2022-12-07T07:34:29;99426.22;;;3.13;100.00
76257;BME280;65074;50.436;8.672;2022-12-07T07:36:55;99422.53;;;3.07;100.00
76257;BME280;65074;50.436;8.672;2022-12-07T07:39:20;99424.97;;;3.09;100.00
76257;BME280;65074;50.436;8.672;2022-12-07T07:41:46;99425.19;;;3.07;100.00
76257;BME280;65074;50.436;8.672;2022-12-07T07:44:13;99413.34;;;3.10;100.00
76257;BME280;65074;50.436;8.672;2022-12-07T07:46:39;99422.53;;;3.14;100.00
76257;BME280;65074;50.436;8.672;2022-12-07T07:49:04;99422.75;;;3.12;100.00
76257;BME280;65074;50.436;8.672;2022-12-07T07:51:30;99421.97;;;3.18;100.00
76257;BME280;65074;50.436;8.672;2022-12-07T07:53:55;99426.63;;;3.16;100.00
76257;BME280;65074;50.436;8.672;2022-12-07T07:56:20;99416.00;;;3.10;100.00
76257;BME280;65074;50.436;8.672;2022-12-07T07:58:45;99433.53;;;3.04;100.00
76257;BME280;65074;50.436;8.672;2022-12-07T08:01:11;99421.91;;;3.05;100.00
76257;BME280;65074;50.436;8.672;2022-12-07T08:03:38;99423.13;;;3.09;100.00
76257;BME280;65074;50.436;8.672;2022-12-07T08:06:04;99430.50;;;3.07;100.00
76257;BME280;65074;50.436;8.672;2022-12-07T08:08:30;99429.66;;;3.07;100.00
76257;BME280;65074;50.436;8.672;2022-12-07T08:10:55;99429.88;;;3.05;100.00
76257;BME280;65074;50.436;8.672;2022-12-07T08:13:21;99432.94;;;3.09;100.00
76257;BME280;65074;50.436;8.672;2022-12-07T08:15:47;99428.88;;;3.13;100.00
76257;BME280;65074;50.436;8.672;2022-12-07T08:18:14;99429.50;;;3.15;100.00
76257;BME280;65074;50.436;8.672;2022-12-07T08:20:41;99434.59;;;3.16;100.00
76257;BME280;65074;50.436;8.672;2022-12-07T08:23:08;99428.28;;;3.17;100.00
76257;BME280;65074;50.436;8.672;2022-12-07T08:25:34;99433.81;;;3.22;100.00
76257;BME280;65074;50.436;8.672;2022-12-07T08:27:59;99437.09;;;3.24;100.00
76257;BME280;65074;50.436;8.672;2022-12-07T08:30:26;99438.09;;;3.23;100.00
76257;BME280;65074;50.436;8.672;2022-12-07T08:32:51;99430.34;;;3.28;100.00
76257;BME280;65074;50.436;8.672;2022-12-07T08:35:17;99435.09;;;3.40;100.00
76257;BME280;65074;50.436;8.672;2022-12-07T08:37:42;99431.81;;;3.44;100.00
76257;BME280;65074;50.436;8.672;2022-12-07T08:40:10;99431.00;;;3.50;100.00
76257;BME280;65074;50.436;8.672;2022-12-07T08:42:36;99433.03;;;3.48;100.00
76257;BME280;65074;50.436;8.672;2022-12-07T08:45:12;99440.00;;;3.56;100.00
76257;BME280;65074;50.436;8.672;2022-12-07T08:47:42;99436.16;;;3.65;100.00
76257;BME280;65074;50.436;8.672;2022-12-07T08:50:11;99434.09;;;3.73;99.68
76257;BME280;65074;50.436;8.672;2022-12-07T08:52:39;99428.16;;;3.71;99.77
76257;BME280;65074;50.436;8.672;2022-12-07T08:55:05;99442.50;;;3.77;99.59
76257;BME280;65074;50.436;8.672;2022-12-07T08:57:32;99437.19;;;3.77;99.73
76257;BME280;65074;50.436;8.672;2022-12-07T08:59:59;99433.06;;;3.81;99.16
76257;BME280;65074;50.436;8.672;2022-12-07T09:02:25;99437.16;;;3.83;99.28
76257;BME280;65074;50.436;8.672;2022-12-07T09:04:50;99436.56;;;3.88;99.14
76257;BME280;65074;50.436;8.672;2022-12-07T09:07:16;99439.63;;;3.91;99.31
76257;BME280;65074;50.436;8.672;2022-12-07T09:09:41;99443.13;;;3.99;98.11
76257;BME280;65074;50.436;8.672;2022-12-07T09:12:07;99452.75;;;4.00;98.27
76257;BME280;65074;50.436;8.672;2022-12-07T09:14:33;99451.91;;;4.06;98.24
76257;BME280;65074;50.436;8.672;2022-12-07T09:17:06;99444.75;;;4.13;98.29
76257;BME280;65074;50.436;8.672;2022-12-07T09:19:32;99442.06;;;4.13;97.04
76257;BME280;65074;50.436;8.672;2022-12-07T09:21:57;99438.41;;;4.14;96.84
76257;BME280;65074;50.436;8.672;2022-12-07T09:24:22;99448.22;;;4.20;97.19
76257;BME280;65074;50.436;8.672;2022-12-07T09:26:48;99457.63;;;4.16;97.51
76257;BME280;65074;50.436;8.672;2022-12-07T09:29:14;99458.88;;;4.13;96.76
76257;BME280;65074;50.436;8.672;2022-12-07T09:31:39;99462.34;;;4.14;97.07
76257;BME280;65074;50.436;8.672;2022-12-07T09:34:05;99460.50;;;4.21;96.60
76257;BME280;65074;50.436;8.672;2022-12-07T09:36:31;99468.47;;;4.27;96.63
76257;BME280;65074;50.436;8.672;2022-12-07T09:38:57;99460.88;;;4.37;96.20
76257;BME280;65074;50.436;8.672;2022-12-07T09:41:24;99471.72;;;4.55;95.41
76257;BME280;65074;50.436;8.672;2022-12-07T09:43:50;99462.25;;;4.73;94.88
76257;BME280;65074;50.436;8.672;2022-12-07T09:46:17;99456.09;;;4.79;94.81
76257;BME280;65074;50.436;8.672;2022-12-07T09:48:44;99462.09;;;4.54;94.50
76257;BME280;65074;50.436;8.672;2022-12-07T09:51:22;99455.53;;;4.57;94.82
76257;BME280;65074;50.436;8.672;2022-12-07T09:53:49;99456.34;;;4.57;95.15
76257;BME280;65074;50.436;8.672;2022-12-07T09:56:15;99455.34;;;4.58;94.83
76257;BME280;65074;50.436;8.672;2022-12-07T09:58:42;99446.75;;;4.56;94.32
76257;BME280;65074;50.436;8.672;2022-12-07T10:03:36;99442.00;;;4.52;94.44
76257;BME280;65074;50.436;8.672;2022-12-07T10:06:02;99437.72;;;4.51;94.44
76257;BME280;65074;50.436;8.672;2022-12-07T10:08:28;99437.72;;;4.64;94.91
76257;BME280;65074;50.436;8.672;2022-12-07T10:10:55;99425.59;;;4.68;94.31
76257;BME280;65074;50.436;8.672;2022-12-07T10:13:36;99432.91;;;4.86;94.57
76257;BME280;65074;50.436;8.672;2022-12-07T10:16:02;99426.06;;;4.96;93.95
76257;BME280;65074;50.436;8.672;2022-12-07T10:18:34;99433.47;;;4.94;93.18
76257;BME280;65074;50.436;8.672;2022-12-07T10:23:28;99427.81;;;5.22;92.12
76257;BME280;65074;50.436;8.672;2022-12-07T10:25:54;99424.91;;;5.23;91.62
76257;BME280;65074;50.436;8.672;2022-12-07T10:28:20;99423.50;;;5.21;92.02
76257;BME280;65074;50.436;8.672;2022-12-07T10:30:48;99421.25;;;5.24;91.27
76257;BME280;65074;50.436;8.672;2022-12-07T10:33:30;99420.75;;;5.34;91.39
76257;BME280;65074;50.436;8.672;2022-12-07T10:35:56;99415.72;;;5.51;91.40
76257;BME280;65074;50.436;8.672;2022-12-07T10:38:25;99418.88;;;5.41;91.40
76257;BME280;65074;50.436;8.672;2022-12-07T10:41:06;99406.41;;;5.35;91.47
76257;BME280;65074;50.436;8.672;2022-12-07T10:43:32;99409.38;;;5.20;91.80
76257;BME280;65074;50.436;8.672;2022-12-07T10:46:13;99404.34;;;5.37;91.66
76257;BME280;65074;50.436;8.672;2022-12-07T10:49:51;99397.69;;;5.46;91.57
76257;BME280;65074;50.436;8.672;2022-12-07T10:55:06;99404.28;;;5.75;89.85
76257;BME280;65074;50.436;8.672;2022-12-07T10:57:44;99404.41;;;5.86;87.30
76257;BME280;65074;50.436;8.672;2022-12-07T11:11:04;99401.03;;;5.42;89.65
76257;BME280;65074;50.436;8.672;2022-12-07T11:13:46;99384.94;;;5.55;89.91
76257;BME280;65074;50.436;8.672;2022-12-07T11:21:56;99382.78;;;5.70;90.85
76257;BME280;65074;50.436;8.672;2022-12-07T11:24:42;99370.53;;;5.87;91.33
76257;BME280;65074;50.436;8.672;2022-12-07T11:27:34;99366.94;;;6.18;89.80
76257;BME280;65074;50.436;8.672;2022-12-07T11:30:08;99371.94;;;5.34;92.35
76257;BME280;65074;50.436;8.672;2022-12-07T11:32:49;99365.19;;;5.31;92.45
76257;BME280;65074;50.436;8.672;2022-12-07T11:38:08;99352.16;;;4.79;93.98
76257;BME280;65074;50.436;8.672;2022-12-07T11:40:36;99356.94;;;4.64;94.25
76257;BME280;65074;50.436;8.672;2022-12-07T11:43:13;99364.53;;;4.60;95.00
76257;BME280;65074;50.436;8.672;2022-12-07T11:45:44;99369.47;;;4.56;95.66
76257;BME280;65074;50.436;8.672;2022-12-07T11:48:22;99355.97;;;4.45;96.24
76257;BME280;65074;50.436;8.672;2022-12-07T11:50:51;99360.06;;;4.47;96.85
76257;BME280;65074;50.436;8.672;2022-12-07T11:53:22;99365.47;;;5.16;94.32
76257;BME280;65074;50.436;8.672;2022-12-07T11:55:52;99358.44;;;5.78;92.28
76257;BME280;65074;50.436;8.672;2022-12-07T12:01:31;99354.19;;;6.20;90.10
76257;BME280;65074;50.436;8.672;2022-12-07T12:06:37;99354.69;;;5.36;92.78
76257;BME280;65074;50.436;8.672;2022-12-07T12:09:55;99349.81;;;5.33;91.44
76257;BME280;65074;50.436;8.672;2022-12-07T12:20:35;99339.69;;;5.10;93.05
76257;BME280;65074;50.436;8.672;2022-12-07T12:23:22;99344.66;;;5.00;93.08
76257;BME280;65074;50.436;8.672;2022-12-07T12:25:52;99337.13;;;4.91;92.39
76257;BME280;65074;50.436;8.672;2022-12-07T12:28:33;99342.09;;;5.43;90.52
76257;BME280;65074;50.436;8.672;2022-12-07T12:33:49;99330.19;;;7.27;81.84
76257;BME280;65074;50.436;8.672;2022-12-07T12:36:23;99329.13;;;6.39;82.90
76257;BME280;65074;50.436;8.672;2022-12-07T12:38:50;99328.31;;;6.02;83.55
76257;BME280;65074;50.436;8.672;2022-12-07T12:51:59;99335.25;;;5.54;83.38
76257;BME280;65074;50.436;8.672;2022-12-07T12:54:34;99331.47;;;6.47;80.40
76257;BME280;65074;50.436;8.672;2022-12-07T12:59:32;99325.97;;;5.63;84.04
76257;BME280;65074;50.436;8.672;2022-12-07T13:04:52;99321.91;;;5.29;86.66
76257;BME280;65074;50.436;8.672;2022-12-07T13:10:38;99324.94;;;5.08;88.03
76257;BME280;65074;50.436;8.672;2022-12-07T13:15:36;99318.97;;;5.12;88.63
76257;BME280;65074;50.436;8.672;2022-12-07T13:23:38;99313.31;;;4.96;88.95
76257;BME280;65074;50.436;8.672;2022-12-07T13:29:18;99302.22;;;4.99;88.89
76257;BME280;65074;50.436;8.672;2022-12-07T13:31:50;99306.75;;;4.98;87.94
76257;BME280;65074;50.436;8.672;2022-12-07T13:34:31;99301.72;;;5.15;87.78
76257;BME280;65074;50.436;8.672;2022-12-07T13:36:57;99304.47;;;5.26;87.79
76257;BME280;65074;50.436;8.672;2022-12-07T13:39:24;99302.06;;;5.25;87.35
76257;BME280;65074;50.436;8.672;2022-12-07T13:41:53;99306.56;;;5.24;87.28
76257;BME280;65074;50.436;8.672;2022-12-07T13:44:19;99299.41;;;5.43;86.85
76257;BME280;65074;50.436;8.672;2022-12-07T13:46:56;99298.16;;;5.21;87.70
76257;BME280;65074;50.436;8.672;2022-12-07T13:49:28;99284.56;;;5.29;88.20
76257;BME280;65074;50.436;8.672;2022-12-07T13:51:56;99299.00;;;5.21;88.92
76257;BME280;65074;50.436;8.672;2022-12-07T13:54:31;99292.78;;;5.03;89.71
76257;BME280;65074;50.436;8.672;2022-12-07T13:56:57;99296.25;;;5.03;90.32
76257;BME280;65074;50.436;8.672;2022-12-07T13:59:25;99295.63;;;5.08;90.03
76257;BME280;65074;50.436;8.672;2022-12-07T14:01:52;99294.56;;;5.09;89.86
76257;BME280;65074;50.436;8.672;2022-12-07T14:04:36;99291.94;;;5.02;90.68
76257;BME280;65074;50.436;8.672;2022-12-07T14:07:19;99290.34;;;4.95;91.23
76257;BME280;65074;50.436;8.672;2022-12-07T14:09:57;99291.19;;;4.95;91.27
76257;BME280;65074;50.436;8.672;2022-12-07T14:12:24;99289.59;;;4.88;91.39
76257;BME280;65074;50.436;8.672;2022-12-07T14:14:51;99286.53;;;4.84;92.08
76257;BME280;65074;50.436;8.672;2022-12-07T14:17:22;99291.53;;;4.68;93.00
76257;BME280;65074;50.436;8.672;2022-12-07T14:19:53;99285.84;;;4.57;93.18
76257;BME280;65074;50.436;8.672;2022-12-07T14:22:22;99288.75;;;4.56;93.69
76257;BME280;65074;50.436;8.672;2022-12-07T14:24:48;99275.25;;;4.44;94.04
76257;BME280;65074;50.436;8.672;2022-12-07T14:27:21;99280.19;;;4.41;94.29
76257;BME280;65074;50.436;8.672;2022-12-07T14:29:47;99273.88;;;4.35;94.76
76257;BME280;65074;50.436;8.672;2022-12-07T14:32:24;99267.53;;;4.30;94.79
76257;BME280;65074;50.436;8.672;2022-12-07T14:35:02;99263.03;;;4.30;95.22
76257;BME280;65074;50.436;8.672;2022-12-07T14:37:29;99265.50;;;4.25;95.47
76257;BME280;65074;50.436;8.672;2022-12-07T14:39:55;99261.84;;;4.26;95.27
76257;BME280;65074;50.436;8.672;2022-12-07T14:42:25;99265.75;;;4.24;95.77
76257;BME280;65074;50.436;8.672;2022-12-07T14:44:52;99260.63;;;4.16;95.86
76257;BME280;65074;50.436;8.672;2022-12-07T14:47:17;99261.06;;;4.13;96.19
76257;BME280;65074;50.436;8.672;2022-12-07T14:49:43;99256.97;;;4.10;95.76
76257;BME280;65074;50.436;8.672;2022-12-07T14:52:17;99264.34;;;4.08;95.56
76257;BME280;65074;50.436;8.672;2022-12-07T14:54:44;99268.25;;;4.06;96.20